Time;durP1;ratioP1;P1;durP2;ratioP2;P2;SDS_P1;SDS_P2;PMS_P1;PMS_P2;Temp;Humidity;BMP_temperature;BMP_pressure;BME280_temperature;BME280_humidity;BME280_pressure;Samples;Min_cycle;Max_cycle;Signal;HPM_P1;HPM_P2
2024/03/04 00:00:40;;;;;;;20.17;13.88;;;;;;;4.79;100.00;101336.28;5093157;28;20036;-73
2024/03/04 00:03:06;;;;;;;19.30;13.35;;;;;;;4.79;100.00;101330.97;5092932;28;20035;-69
2024/03/04 00:05:34;;;;;;;16.42;12.55;;;;;;;4.76;100.00;101333.91;5075853;28;20020;-68
2024/03/04 00:07:59;;;;;;;20.05;12.63;;;;;;;4.73;100.00;101327.06;5092333;28;20020;-68
2024/03/04 00:10:25;;;;;;;18.92;12.98;;;;;;;4.66;100.00;101342.78;5086424;28;20036;-71
2024/03/04 00:12:50;;;;;;;23.00;13.52;;;;;;;4.63;100.00;101336.91;5071231;28;20297;-69
2024/03/04 00:15:16;;;;;;;18.33;12.40;;;;;;;4.48;100.00;101312.59;5072836;28;20025;-68
2024/03/04 00:17:42;;;;;;;20.80;13.70;;;;;;;4.49;100.00;101316.94;5071529;28;20057;-68
2024/03/04 00:20:09;;;;;;;16.95;12.38;;;;;;;4.63;100.00;101328.94;5071536;28;20067;-69
2024/03/04 00:22:35;;;;;;;16.88;11.50;;;;;;;4.35;100.00;101304.09;5071720;28;20010;-68
2024/03/04 00:25:01;;;;;;;21.58;12.38;;;;;;;4.58;100.00;101333.88;5072509;28;20033;-68
2024/03/04 00:27:26;;;;;;;17.48;12.45;;;;;;;4.56;100.00;101331.34;5073077;28;20055;-70
2024/03/04 00:29:52;;;;;;;17.98;12.90;;;;;;;4.35;100.00;101312.91;5072379;28;20024;-68
2024/03/04 00:32:17;;;;;;;17.40;11.98;;;;;;;4.52;100.00;101337.13;5071882;28;20040;-69
2024/03/04 00:34:43;;;;;;;18.73;11.95;;;;;;;4.44;100.00;101337.88;5052467;28;20040;-72
2024/03/04 00:37:09;;;;;;;17.02;11.65;;;;;;;4.42;100.00;101337.16;5069592;28;20025;-71
2024/03/04 00:39:35;;;;;;;15.20;11.25;;;;;;;4.35;100.00;101328.06;5063427;28;20046;-68
2024/03/04 00:42:01;;;;;;;17.40;11.50;;;;;;;4.39;100.00;101337.44;5055677;28;20040;-69
2024/03/04 00:44:26;;;;;;;16.63;11.10;;;;;;;4.41;100.00;101352.31;5072560;28;20017;-67
2024/03/04 00:46:51;;;;;;;16.67;11.40;;;;;;;4.38;100.00;101351.75;5073696;28;20074;-69
2024/03/04 00:49:17;;;;;;;17.48;11.18;;;;;;;4.37;100.00;101350.94;5076249;28;20009;-68
2024/03/04 00:51:42;;;;;;;17.65;11.68;;;;;;;4.26;100.00;101326.28;5074816;28;20044;-68
2024/03/04 00:54:07;;;;;;;17.25;10.70;;;;;;;4.35;100.00;101344.91;5075969;28;20040;-68
2024/03/04 00:56:33;;;;;;;16.63;11.38;;;;;;;4.40;100.00;101350.63;5076123;28;20063;-68
2024/03/04 00:59:02;;;;;;;15.68;10.70;;;;;;;4.34;100.00;101355.69;5076205;28;20089;-68
2024/03/04 01:01:27;;;;;;;16.10;11.25;;;;;;;4.33;100.00;101354.84;5075072;28;20028;-68
2024/03/04 01:03:53;;;;;;;16.30;10.75;;;;;;;4.31;100.00;101353.34;5074854;28;20029;-68
2024/03/04 01:06:20;;;;;;;18.27;11.77;;;;;;;4.10;100.00;101327.72;5054469;28;20014;-68
2024/03/04 01:08:45;;;;;;;15.70;11.07;;;;;;;4.22;100.00;101352.38;5048983;28;20021;-68
2024/03/04 01:11:11;;;;;;;18.42;11.10;;;;;;;4.20;100.00;101357.81;5044194;28;20068;-69
2024/03/04 01:13:37;;;;;;;20.00;11.70;;;;;;;4.09;100.00;101357.16;5051922;28;20735;-67
2024/03/04 01:16:04;;;;;;;15.88;10.90;;;;;;;4.06;100.00;101358.28;5066135;28;20123;-68
2024/03/04 01:18:29;;;;;;;14.85;11.43;;;;;;;4.06;100.00;101354.78;5069122;28;20017;-68
2024/03/04 01:20:55;;;;;;;17.70;10.98;;;;;;;3.99;100.00;101351.84;5052199;28;20075;-68
2024/03/04 01:23:23;;;;;;;18.17;11.65;;;;;;;4.02;100.00;101354.22;5042285;28;20028;-68
2024/03/04 01:25:50;;;;;;;16.60;11.73;;;;;;;4.00;100.00;101351.69;5074099;28;20035;-68
2024/03/04 01:28:16;;;;;;;20.05;12.10;;;;;;;3.88;100.00;101347.53;5074938;28;20025;-72
2024/03/04 01:30:41;;;;;;;17.77;11.70;;;;;;;3.87;100.00;101348.50;5075079;28;20089;-67
2024/03/04 01:33:07;;;;;;;17.75;12.02;;;;;;;3.82;100.00;101345.44;5075251;28;20029;-70
2024/03/04 01:35:34;;;;;;;18.63;12.18;;;;;;;3.83;100.00;101351.59;5074144;28;20085;-67
2024/03/04 01:38:00;;;;;;;18.38;11.95;;;;;;;3.70;100.00;101343.88;5076390;28;20064;-68
2024/03/04 01:40:25;;;;;;;19.30;12.30;;;;;;;3.78;100.00;101360.00;5094223;28;20032;-68
2024/03/04 01:42:53;;;;;;;19.00;12.45;;;;;;;3.75;100.00;101360.28;5093725;28;20029;-68
2024/03/04 01:45:25;;;;;;;14.13;10.43;;;;;;;3.70;100.00;101357.19;5093920;28;20023;-69
2024/03/04 01:47:57;;;;;;;20.92;12.80;;;;;;;3.74;100.00;101364.78;5094431;28;20040;-67
2024/03/04 01:50:29;;;;;;;18.33;11.48;;;;;;;3.66;100.00;101356.63;5094688;28;20066;-74
2024/03/04 01:52:58;;;;;;;17.90;11.30;;;;;;;3.67;100.00;101368.97;5096586;28;20024;-68
2024/03/04 01:55:25;;;;;;;20.65;11.57;;;;;;;3.52;100.00;101338.44;5094640;28;20028;-68
2024/03/04 01:57:53;;;;;;;14.77;10.60;;;;;;;3.63;100.00;101356.09;5074678;28;20028;-67
2024/03/04 02:00:23;;;;;;;17.52;11.40;;;;;;;3.38;100.00;101315.75;5092674;28;20526;-76
2024/03/04 02:02:49;;;;;;;16.80;11.27;;;;;;;3.59;100.00;101360.00;5087333;28;20024;-67
2024/03/04 02:05:15;;;;;;;16.55;11.55;;;;;;;3.40;100.00;101323.59;5081351;28;20024;-67
2024/03/04 02:07:41;;;;;;;16.10;10.55;;;;;;;3.59;100.00;101360.00;5086307;28;20574;-67
2024/03/04 02:10:12;;;;;;;15.88;10.57;;;;;;;3.51;100.00;101353.56;5088123;28;20021;-68
2024/03/04 02:12:38;;;;;;;14.68;9.95;;;;;;;3.52;100.00;101354.41;5089917;28;20035;-68
2024/03/04 02:15:04;;;;;;;16.33;11.25;;;;;;;3.57;100.00;101361.97;5093228;28;20033;-68
2024/03/04 02:17:32;;;;;;;18.17;10.93;;;;;;;3.36;100.00;101348.81;5094004;28;20024;-68
2024/03/04 02:20:15;;;;;;;22.80;10.93;;;;;;;3.42;100.00;101348.25;5094886;28;20020;-68
2024/03/04 02:22:41;;;;;;;16.88;10.93;;;;;;;3.48;100.00;101371.63;5084959;28;20044;-68
2024/03/04 02:25:11;;;;;;;18.05;10.98;;;;;;;3.41;100.00;101365.16;5073788;28;20016;-68
2024/03/04 02:27:42;;;;;;;20.70;11.63;;;;;;;3.29;100.00;101343.19;5074098;28;20010;-68
2024/03/04 02:30:08;;;;;;;18.23;11.48;;;;;;;3.48;100.00;101379.63;5074372;28;20021;-70
2024/03/04 02:32:34;;;;;;;18.52;11.27;;;;;;;3.41;100.00;101379.34;5074380;28;20063;-67
2024/03/04 02:35:05;;;;;;;17.02;11.27;;;;;;;3.37;100.00;101377.06;5057252;28;20064;-69
2024/03/04 02:37:37;;;;;;;17.20;10.77;;;;;;;3.34;100.00;101383.50;5073414;28;20033;-68
2024/03/04 02:40:07;;;;;;;19.90;11.80;;;;;;;3.25;100.00;101379.03;5060871;28;20045;-68
2024/03/04 02:42:33;;;;;;;19.30;10.68;;;;;;;3.26;100.00;101391.34;5052168;28;20068;-68
2024/03/04 02:44:59;;;;;;;15.25;10.35;;;;;;;3.24;100.00;101390.63;5074239;28;20039;-67
2024/03/04 02:47:24;;;;;;;18.45;11.23;;;;;;;3.17;100.00;101382.34;5090688;28;20024;-68
2024/03/04 02:49:50;;;;;;;18.25;11.57;;;;;;;2.98;100.00;101363.69;5080464;28;20024;-68
2024/03/04 02:52:16;;;;;;;16.25;11.10;;;;;;;3.13;100.00;101391.59;5075984;28;20094;-71
2024/03/04 02:54:41;;;;;;;16.27;11.23;;;;;;;3.17;100.00;101382.34;5092923;28;20041;-70
2024/03/04 02:57:07;;;;;;;17.33;10.82;;;;;;;3.16;100.00;101387.81;5092913;28;20055;-67
2024/03/04 02:59:32;;;;;;;17.52;10.68;;;;;;;3.15;100.00;101391.47;5091511;28;20092;-68
2024/03/04 03:01:58;;;;;;;16.02;10.85;;;;;;;3.09;100.00;101390.19;5091740;28;20048;-68
2024/03/04 03:04:26;;;;;;;19.17;10.85;;;;;;;3.10;100.00;101397.19;5075738;28;20028;-67
2024/03/04 03:06:52;;;;;;;17.23;11.10;;;;;;;3.11;100.00;101401.50;5091690;28;20025;-68
2024/03/04 03:09:18;;;;;;;18.92;11.50;;;;;;;2.92;100.00;101374.91;5092161;28;20028;-67
2024/03/04 03:11:43;;;;;;;15.77;11.05;;;;;;;2.95;100.00;101382.59;5037350;28;20048;-67
2024/03/04 03:14:09;;;;;;;16.90;11.18;;;;;;;3.03;100.00;101407.50;5052298;28;20473;-67
2024/03/04 03:16:34;;;;;;;16.95;11.65;;;;;;;2.79;100.00;101361.84;5050883;28;20033;-68
2024/03/04 03:19:00;;;;;;;20.92;11.23;;;;;;;2.86;100.00;101383.41;5052558;28;20639;-68
2024/03/04 03:21:28;;;;;;;17.35;10.93;;;;;;;3.00;100.00;101406.94;5051512;28;20101;-68
2024/03/04 03:23:55;;;;;;;16.33;11.30;;;;;;;2.71;100.00;101362.50;5081095;28;20117;-67
2024/03/04 03:26:22;;;;;;;18.80;11.57;;;;;;;2.95;100.00;101409.19;5047576;28;20387;-67
2024/03/04 03:28:48;;;;;;;15.35;10.38;;;;;;;2.91;100.00;101400.59;5057515;28;20032;-68
2024/03/04 03:31:15;;;;;;;17.33;10.75;;;;;;;2.92;100.00;101409.44;5070799;28;20009;-68
2024/03/04 03:33:41;;;;;;;18.58;11.60;;;;;;;2.89;100.00;101407.06;5072473;28;20080;-69
2024/03/04 03:36:06;;;;;;;14.20;10.57;;;;;;;2.90;100.00;101406.06;5071423;28;20071;-72
2024/03/04 03:38:35;;;;;;;15.57;10.82;;;;;;;2.90;100.00;101411.38;5050787;28;20617;-68
2024/03/04 03:41:01;;;;;;;17.55;11.13;;;;;;;2.80;100.00;101406.88;5095567;28;20035;-67
2024/03/04 03:43:27;;;;;;;19.38;11.10;;;;;;;2.82;100.00;101414.72;5061376;28;20025;-68
2024/03/04 03:45:53;;;;;;;17.02;11.32;;;;;;;2.81;100.00;101418.34;5071000;28;20029;-68
2024/03/04 03:48:18;;;;;;;16.92;10.93;;;;;;;2.74;100.00;101402.09;5070687;28;20044;-68
2024/03/04 03:50:47;;;;;;;18.33;11.18;;;;;;;2.65;100.00;101394.94;5104023;28;20139;-68
2024/03/04 03:53:13;;;;;;;19.10;11.20;;;;;;;2.81;100.00;101421.00;5072384;28;20112;-67
2024/03/04 03:55:39;;;;;;;17.48;10.77;;;;;;;2.77;100.00;101428.41;5071744;28;20021;-70
2024/03/04 03:58:06;;;;;;;18.25;11.75;;;;;;;2.76;100.00;101428.53;5071537;28;20025;-70
2024/03/04 04:00:31;;;;;;;16.50;11.45;;;;;;;2.74;100.00;101425.16;5071728;28;20029;-70
2024/03/04 04:02:57;;;;;;;17.45;10.98;;;;;;;2.70;100.00;101426.41;5071484;28;20017;-69
2024/03/04 04:05:22;;;;;;;16.25;11.02;;;;;;;2.50;100.00;101421.00;5071832;28;20035;-73
2024/03/04 04:07:48;;;;;;;16.92;11.55;;;;;;;2.54;100.00;101416.25;5071509;28;20114;-68
2024/03/04 04:10:16;;;;;;;18.90;12.20;;;;;;;2.62;100.00;101440.38;5072578;28;20010;-68
2024/03/04 04:12:42;;;;;;;20.50;12.43;;;;;;;2.65;100.00;101444.56;5071371;28;20096;-71
2024/03/04 04:15:08;;;;;;;19.02;11.25;;;;;;;2.63;100.00;101442.03;5071571;28;20555;-70
2024/03/04 04:17:33;;;;;;;20.65;11.48;;;;;;;2.55;100.00;101450.69;5072098;28;20228;-68
2024/03/04 04:19:59;;;;;;;18.38;11.18;;;;;;;2.50;100.00;101454.69;5064713;28;20021;-68
2024/03/04 04:22:26;;;;;;;15.93;11.68;;;;;;;2.48;100.00;101453.97;5061347;28;20064;-67
2024/03/04 04:24:52;;;;;;;17.38;12.35;;;;;;;2.43;100.00;101456.19;5070433;28;20021;-68
2024/03/04 04:27:17;;;;;;;18.67;11.88;;;;;;;2.41;100.00;101458.13;5073343;28;20039;-68
2024/03/04 04:29:43;;;;;;;16.75;11.00;;;;;;;2.37;100.00;101452.22;5055934;28;20044;-67
2024/03/04 04:32:08;;;;;;;17.08;10.43;;;;;;;2.33;100.00;101451.66;5075091;28;20029;-68
2024/03/04 04:34:34;;;;;;;24.08;13.45;;;;;;;2.30;100.00;101451.91;5058290;28;20040;-68
2024/03/04 04:36:59;;;;;;;22.70;12.63;;;;;;;2.33;100.00;101472.06;5076279;28;20119;-68
2024/03/04 04:39:25;;;;;;;16.25;11.35;;;;;;;2.31;100.00;101468.69;5076405;28;20045;-72
2024/03/04 04:41:50;;;;;;;17.00;11.50;;;;;;;2.33;100.00;101464.94;5076299;28;20048;-68
2024/03/04 04:44:16;;;;;;;22.30;12.65;;;;;;;2.34;100.00;101481.69;5059289;28;20029;-68
2024/03/04 04:46:41;;;;;;;20.05;12.00;;;;;;;2.30;100.00;101475.81;5077207;28;20037;-68
2024/03/04 04:49:07;;;;;;;17.98;11.93;;;;;;;2.24;100.00;101468.34;5077488;28;20025;-68
2024/03/04 04:51:33;;;;;;;20.23;12.10;;;;;;;2.30;100.00;101486.44;5076538;28;20045;-69
2024/03/04 04:53:59;;;;;;;22.52;12.75;;;;;;;2.28;100.00;101493.66;5077609;28;20036;-68
2024/03/04 04:56:24;;;;;;;18.45;12.32;;;;;;;2.27;100.00;101485.84;5076715;28;20036;-68
2024/03/04 04:58:50;;;;;;;18.45;12.18;;;;;;;2.08;100.00;101471.44;5079161;28;20028;-69
2024/03/04 05:01:29;;;;;;;19.15;11.57;;;;;;;2.25;100.00;101499.25;5092663;28;20033;-68
2024/03/04 05:03:55;;;;;;;19.80;12.65;;;;;;;2.32;100.00;101503.09;5093837;28;20032;-68
2024/03/04 05:06:21;;;;;;;19.83;11.50;;;;;;;2.27;100.00;101510.59;5094916;28;20028;-69
2024/03/04 05:08:47;;;;;;;21.48;12.45;;;;;;;2.28;100.00;101516.72;5095312;28;20021;-68
2024/03/04 05:11:13;;;;;;;20.33;12.27;;;;;;;2.26;100.00;101508.91;5091742;28;20065;-67
2024/03/04 05:13:38;;;;;;;20.08;12.65;;;;;;;2.31;100.00;101517.31;5089453;28;20332;-67
2024/03/04 05:16:05;;;;;;;20.92;11.77;;;;;;;2.27;100.00;101521.19;5081427;28;20525;-67
2024/03/04 05:18:30;;;;;;;18.15;11.85;;;;;;;2.22;100.00;101514.59;5062039;28;20067;-68
2024/03/04 05:20:56;;;;;;;22.75;12.27;;;;;;;2.29;100.00;101521.94;5082076;28;20028;-67
2024/03/04 05:23:22;;;;;;;20.00;12.52;;;;;;;2.21;100.00;101510.25;5086655;28;20029;-71
2024/03/04 05:25:48;;;;;;;17.80;11.63;;;;;;;2.26;100.00;101537.28;5080272;28;20024;-72
2024/03/04 05:28:14;;;;;;;18.17;11.35;;;;;;;2.25;100.00;101536.44;5079945;28;20084;-71
2024/03/04 05:30:41;;;;;;;19.20;11.52;;;;;;;2.26;100.00;101537.28;5080568;28;20355;-70
2024/03/04 05:33:07;;;;;;;19.30;11.77;;;;;;;2.21;100.00;101537.63;5079533;28;20024;-69
2024/03/04 05:35:33;;;;;;;18.85;11.10;;;;;;;2.14;100.00;101544.44;5087937;28;20020;-67
2024/03/04 05:37:58;;;;;;;17.20;11.43;;;;;;;2.13;100.00;101550.72;5082370;28;20102;-67
2024/03/04 05:40:24;;;;;;;16.10;10.82;;;;;;;2.08;100.00;101552.88;5088228;28;20058;-68
2024/03/04 05:42:49;;;;;;;16.10;11.60;;;;;;;2.00;100.00;101537.59;5089243;28;20479;-68
2024/03/04 05:45:15;;;;;;;19.00;11.43;;;;;;;2.09;100.00;101554.59;5084700;28;20052;-68
2024/03/04 05:47:40;;;;;;;21.67;12.55;;;;;;;2.06;100.00;101561.00;5084966;28;20546;-67
2024/03/04 05:50:06;;;;;;;16.17;11.00;;;;;;;1.82;100.00;101524.03;5088216;28;20021;-70
2024/03/04 05:52:32;;;;;;;19.88;11.35;;;;;;;1.99;100.00;101561.63;5070766;28;20048;-67
2024/03/04 05:54:58;;;;;;;18.48;11.82;;;;;;;1.99;100.00;101569.59;5058869;28;20052;-68
2024/03/04 05:57:24;;;;;;;17.17;10.95;;;;;;;1.98;100.00;101574.03;5068606;28;20036;-68
2024/03/04 05:59:49;;;;;;;16.40;11.23;;;;;;;1.97;100.00;101574.16;5067297;28;20029;-68
2024/03/04 06:02:15;;;;;;;17.73;11.98;;;;;;;1.96;100.00;101573.34;5065694;28;20040;-68
2024/03/04 06:04:40;;;;;;;15.50;11.35;;;;;;;1.71;100.00;101539.97;5065343;28;20060;-69
2024/03/04 06:07:06;;;;;;;21.15;12.30;;;;;;;1.90;100.00;101587.09;5060036;28;20035;-70
2024/03/04 06:09:31;;;;;;;17.13;12.02;;;;;;;1.87;100.00;101582.88;5060378;28;20029;-68
2024/03/04 06:11:57;;;;;;;19.08;12.73;;;;;;;1.94;100.00;101591.19;5059019;28;20086;-70
2024/03/04 06:14:23;;;;;;;23.05;12.10;;;;;;;1.87;100.00;101587.34;5064984;28;20033;-68
2024/03/04 06:16:49;;;;;;;19.67;11.90;;;;;;;1.85;100.00;101592.78;5065656;28;20115;-70
2024/03/04 06:19:14;;;;;;;20.63;12.07;;;;;;;1.86;100.00;101594.47;5057043;28;20060;-68
2024/03/04 06:21:42;;;;;;;19.33;11.77;;;;;;;1.82;100.00;101598.34;5074820;28;20033;-68
2024/03/04 06:24:07;;;;;;;18.75;11.70;;;;;;;1.85;100.00;101603.41;5077262;28;20078;-68
2024/03/04 06:26:33;;;;;;;19.08;11.90;;;;;;;1.84;100.00;101608.81;5075619;28;20026;-69
2024/03/04 06:28:58;;;;;;;19.70;11.60;;;;;;;1.86;100.00;101607.72;5058021;28;20036;-68
2024/03/04 06:31:24;;;;;;;17.65;11.38;;;;;;;1.78;100.00;101604.00;5057441;28;20028;-68
2024/03/04 06:33:49;;;;;;;18.67;11.75;;;;;;;1.57;100.00;101575.56;5075395;28;20145;-68
2024/03/04 06:36:15;;;;;;;16.83;11.38;;;;;;;1.81;100.00;101614.34;5075541;28;20024;-68
2024/03/04 06:38:41;;;;;;;20.15;11.27;;;;;;;1.80;100.00;101618.84;5075722;28;20053;-68
2024/03/04 06:41:07;;;;;;;19.50;11.40;;;;;;;1.84;100.00;101630.03;5077462;28;20036;-67
2024/03/04 06:43:33;;;;;;;18.90;11.65;;;;;;;1.85;100.00;101626.41;5084812;28;20024;-70
2024/03/04 06:45:59;;;;;;;19.48;12.25;;;;;;;1.80;100.00;101640.06;5082089;28;20032;-68
2024/03/04 06:48:24;;;;;;;19.30;12.73;;;;;;;1.71;100.00;101624.84;5076553;28;20029;-68
2024/03/04 06:50:50;;;;;;;20.08;12.73;;;;;;;1.81;100.00;101641.75;5076546;28;20032;-67
2024/03/04 06:53:15;;;;;;;17.63;11.65;;;;;;;1.83;100.00;101639.81;5059278;28;20036;-68
2024/03/04 06:55:41;;;;;;;17.50;11.68;;;;;;;1.86;100.00;101636.91;5077456;28;20287;-69
2024/03/04 06:58:06;;;;;;;21.27;12.55;;;;;;;1.92;100.00;101637.38;5076135;28;20028;-69
2024/03/04 07:00:31;;;;;;;17.60;11.68;;;;;;;1.93;100.00;101636.44;5077167;28;20473;-69
2024/03/04 07:02:57;;;;;;;18.92;11.60;;;;;;;1.97;100.00;101641.38;5077154;28;20029;-69
2024/03/04 07:05:22;;;;;;;17.52;12.45;;;;;;;1.99;100.00;101642.09;5077021;28;20047;-69
2024/03/04 07:07:48;;;;;;;19.73;12.23;;;;;;;2.06;100.00;101653.06;5058904;28;20040;-69
2024/03/04 07:10:13;;;;;;;16.58;11.23;;;;;;;2.04;100.00;101647.03;5077164;28;20025;-69
2024/03/04 07:12:38;;;;;;;16.45;11.40;;;;;;;2.07;100.00;101657.41;5077025;28;20033;-70
2024/03/04 07:15:04;;;;;;;19.02;10.68;;;;;;;1.95;100.00;101623.88;5059426;28;20032;-68
2024/03/04 07:17:30;;;;;;;17.10;12.20;;;;;;;2.18;100.00;101652.06;5075888;28;20376;-69
2024/03/04 07:19:56;;;;;;;14.10;9.90;;;;;;;2.18;100.00;101653.88;5076163;28;20115;-69
2024/03/04 07:22:21;;;;;;;17.75;11.82;;;;;;;2.24;100.00;101654.22;5075911;28;20032;-69
2024/03/04 07:24:47;;;;;;;17.98;10.57;;;;;;;2.18;100.00;101644.09;5077520;28;20028;-67
2024/03/04 07:27:12;;;;;;;15.20;11.00;;;;;;;2.29;100.00;101662.69;5075863;28;20035;-67
2024/03/04 07:29:37;;;;;;;18.35;11.00;;;;;;;2.36;100.00;101668.34;5058742;28;20602;-67
2024/03/04 07:32:03;;;;;;;15.20;10.45;;;;;;;2.44;100.00;101665.03;5064412;28;20110;-69
2024/03/04 07:34:29;;;;;;;14.75;10.45;;;;;;;2.46;100.00;101671.09;5070870;28;20482;-67
2024/03/04 07:36:54;;;;;;;14.82;10.13;;;;;;;2.47;100.00;101662.16;5076598;28;20032;-67
2024/03/04 07:39:22;;;;;;;16.25;10.95;;;;;;;2.62;100.00;101676.84;5076114;28;20037;-68
2024/03/04 07:41:47;;;;;;;15.18;10.23;;;;;;;2.63;100.00;101685.66;5076270;28;20103;-68
2024/03/04 07:44:13;;;;;;;15.40;10.43;;;;;;;2.69;100.00;101677.19;5076778;28;20099;-68
2024/03/04 07:46:38;;;;;;;16.55;10.45;;;;;;;2.81;100.00;101685.00;5076332;28;20029;-70
2024/03/04 07:49:04;;;;;;;11.82;8.18;;;;;;;2.86;100.00;101678.44;5075581;28;20025;-69
2024/03/04 07:51:29;;;;;;;14.07;9.50;;;;;;;2.92;100.00;101685.91;5058304;28;20044;-67
2024/03/04 07:53:54;;;;;;;14.95;9.25;;;;;;;2.88;100.00;101679.13;5075413;28;20403;-68
2024/03/04 07:56:20;;;;;;;12.15;8.93;;;;;;;2.97;100.00;101689.84;5078933;28;20024;-68
2024/03/04 07:58:45;;;;;;;12.82;9.23;;;;;;;3.12;100.00;101698.38;5065967;28;20071;-67
2024/03/04 08:01:11;;;;;;;11.77;8.57;;;;;;;3.17;100.00;101690.84;5059085;28;20044;-68
2024/03/04 08:03:37;;;;;;;13.60;8.82;;;;;;;3.19;100.00;101702.19;5027053;28;20039;-68
2024/03/04 08:06:02;;;;;;;12.70;8.05;;;;;;;3.22;100.00;101709.09;5062504;28;20120;-68
2024/03/04 08:08:28;;;;;;;13.00;9.02;;;;;;;3.30;100.00;101701.28;5062151;28;20095;-67
2024/03/04 08:10:53;;;;;;;13.13;8.93;;;;;;;3.40;100.00;101696.88;5062015;28;20064;-68
2024/03/04 08:13:18;;;;;;;12.90;8.00;;;;;;;3.17;100.00;101690.84;5069035;28;20039;-68
2024/03/04 08:15:44;;;;;;;12.18;8.43;;;;;;;3.33;100.00;101701.03;5069280;28;20091;-68
2024/03/04 08:18:09;;;;;;;13.05;9.32;;;;;;;3.44;100.00;101718.72;5069063;28;20056;-68
2024/03/04 08:20:35;;;;;;;12.55;9.02;;;;;;;3.58;100.00;101715.75;5046768;28;20029;-68
2024/03/04 08:23:04;;;;;;;14.30;9.27;;;;;;;3.39;100.00;101708.50;5059174;28;20039;-68
2024/03/04 08:25:29;;;;;;;11.85;7.85;;;;;;;3.56;100.00;101712.38;5060926;28;20511;-68
2024/03/04 08:27:55;;;;;;;11.85;8.05;;;;;;;3.66;100.00;101715.09;5060190;28;20069;-68
2024/03/04 08:30:22;;;;;;;11.70;8.00;;;;;;;3.62;100.00;101717.19;5042178;28;20032;-68
2024/03/04 08:32:50;;;;;;;13.10;8.70;;;;;;;3.62;100.00;101725.16;5042528;28;20115;-68
2024/03/04 08:35:15;;;;;;;11.93;7.80;;;;;;;3.67;100.00;101720.28;5026582;28;20025;-67
2024/03/04 08:37:42;;;;;;;14.00;8.63;;;;;;;3.69;100.00;101739.63;5059684;28;20024;-69
2024/03/04 08:40:08;;;;;;;9.88;7.47;;;;;;;3.58;100.00;101723.75;5059750;28;20033;-68
2024/03/04 08:42:34;;;;;;;10.00;6.57;;;;;;;3.76;100.00;101729.31;5041551;28;20024;-68
2024/03/04 08:44:59;;;;;;;14.15;8.48;;;;;;;3.87;100.00;101739.03;5055682;28;20035;-68
2024/03/04 08:47:25;;;;;;;11.93;8.15;;;;;;;3.91;100.00;101733.31;5041768;28;20029;-68
2024/03/04 08:49:50;;;;;;;13.98;7.30;;;;;;;3.95;100.00;101747.19;5060493;28;20017;-68
2024/03/04 08:52:15;;;;;;;11.15;7.43;;;;;;;3.71;100.00;101727.03;5041962;28;20032;-68
2024/03/04 08:54:41;;;;;;;12.20;8.65;;;;;;;3.97;100.00;101746.09;5058703;28;20412;-68
2024/03/04 08:57:06;;;;;;;12.68;8.77;;;;;;;3.94;100.00;101742.84;5058560;28;20036;-68
2024/03/04 08:59:32;;;;;;;13.30;8.32;;;;;;;4.04;100.00;101743.75;5058195;28;20029;-68
2024/03/04 09:01:57;;;;;;;11.75;8.20;;;;;;;4.06;100.00;101735.63;5058130;28;20032;-68
2024/03/04 09:04:23;;;;;;;14.15;7.35;;;;;;;4.09;100.00;101752.16;5025658;28;20115;-68
2024/03/04 09:06:49;;;;;;;13.15;7.97;;;;;;;4.13;100.00;101753.56;5057784;28;20033;-68
2024/03/04 09:09:14;;;;;;;11.57;7.97;;;;;;;4.13;100.00;101761.56;5059823;28;20029;-68
2024/03/04 09:11:40;;;;;;;10.32;7.43;;;;;;;4.29;100.00;101755.75;5059072;28;20089;-69
2024/03/04 09:14:05;;;;;;;11.02;7.32;;;;;;;4.33;100.00;101757.16;5057156;28;20062;-67
2024/03/04 09:16:31;;;;;;;11.73;7.57;;;;;;;4.32;100.00;101757.31;5058897;28;20029;-68
2024/03/04 09:18:56;;;;;;;11.60;8.30;;;;;;;4.50;100.00;101766.31;5057732;28;20041;-68
2024/03/04 09:21:24;;;;;;;10.68;7.03;;;;;;;4.53;100.00;101771.38;5059256;28;20033;-70
2024/03/04 09:23:50;;;;;;;16.48;8.30;;;;;;;4.60;100.00;101745.03;5028224;28;20088;-69
2024/03/04 09:26:17;;;;;;;10.43;8.05;;;;;;;4.67;100.00;101763.03;5060555;28;20025;-69
2024/03/04 09:28:50;;;;;;;12.77;8.50;;;;;;;4.64;100.00;101760.63;5050023;28;20032;-68
2024/03/04 09:31:16;;;;;;;12.40;7.50;;;;;;;4.76;100.00;101760.50;5063801;28;20033;-69
2024/03/04 09:33:42;;;;;;;9.65;6.82;;;;;;;4.77;100.00;101755.03;5061524;28;20059;-68
2024/03/04 09:36:07;;;;;;;10.88;6.97;;;;;;;4.76;100.00;101766.66;5074719;28;20047;-68
2024/03/04 09:38:32;;;;;;;10.77;7.38;;;;;;;4.80;100.00;101756.56;5067960;28;20045;-69
2024/03/04 09:40:59;;;;;;;11.35;7.70;;;;;;;4.91;100.00;101757.31;5062524;28;20038;-69
2024/03/04 09:43:31;;;;;;;11.82;7.40;;;;;;;5.04;100.00;101762.38;5052501;28;20045;-69
2024/03/04 09:46:00;;;;;;;9.73;6.68;;;;;;;4.96;100.00;101714.19;5069917;28;20068;-69
2024/03/04 09:48:26;;;;;;;9.60;6.85;;;;;;;5.01;100.00;101759.16;5072321;28;20047;-73
2024/03/04 09:50:55;;;;;;;8.93;6.00;;;;;;;4.90;100.00;101763.63;5070072;28;20025;-70
2024/03/04 09:53:22;;;;;;;10.43;7.80;;;;;;;5.02;100.00;101769.66;5072786;28;20021;-70
2024/03/04 09:55:47;;;;;;;8.88;7.00;;;;;;;5.14;100.00;101770.38;5071502;28;20017;-69
2024/03/04 09:58:14;;;;;;;11.43;7.57;;;;;;;5.22;100.00;101767.00;5073245;28;20399;-69
2024/03/04 10:00:40;;;;;;;11.45;6.95;;;;;;;5.13;100.00;101745.53;5070929;28;20032;-69
2024/03/04 10:03:09;;;;;;;9.77;7.40;;;;;;;5.42;100.00;101782.03;5069685;28;20033;-70
2024/03/04 10:05:34;;;;;;;10.07;6.72;;;;;;;5.25;100.00;101769.41;5070954;28;20044;-69
2024/03/04 10:08:00;;;;;;;11.80;7.47;;;;;;;5.38;100.00;101786.81;5069542;28;20025;-69
2024/03/04 10:10:25;;;;;;;8.07;5.53;;;;;;;5.21;100.00;101762.66;5071112;28;20048;-69
2024/03/04 10:12:52;;;;;;;12.10;7.05;;;;;;;5.44;100.00;101780.06;5072402;28;20044;-70
2024/03/04 10:15:20;;;;;;;11.10;6.80;;;;;;;5.60;100.00;101777.66;5072018;28;20053;-70
2024/03/04 10:17:45;;;;;;;17.50;6.93;;;;;;;5.47;100.00;101747.75;5072702;28;20055;-69
2024/03/04 10:20:11;;;;;;;11.32;6.68;;;;;;;5.83;100.00;101783.53;5071333;28;20025;-69
2024/03/04 10:22:39;;;;;;;9.50;6.53;;;;;;;5.92;100.00;101786.31;5070835;28;20040;-70
2024/03/04 10:25:05;;;;;;;11.18;7.38;;;;;;;5.99;100.00;101795.44;5062896;28;20031;-69
2024/03/04 10:27:42;;;;;;;12.60;6.65;;;;;;;5.84;100.00;101776.34;5067483;28;20046;-69
2024/03/04 10:30:19;;;;;;;12.65;6.78;;;;;;;6.15;100.00;101792.16;5070606;28;20387;-69
2024/03/04 10:33:05;;;;;;;11.40;6.80;;;;;;;6.34;100.00;101784.94;5071487;28;20025;-69
2024/03/04 10:35:32;;;;;;;10.90;6.15;;;;;;;6.19;100.00;101790.88;5070462;28;20024;-69
2024/03/04 10:37:59;;;;;;;10.02;6.63;;;;;;;6.42;100.00;101802.06;5071002;28;20033;-71
2024/03/04 10:40:25;;;;;;;11.50;6.68;;;;;;;6.46;100.00;101790.94;5070288;28;20021;-69
2024/03/04 10:42:51;;;;;;;7.95;6.10;;;;;;;6.48;100.00;101786.25;5071388;28;20021;-69
2024/03/04 10:45:16;;;;;;;10.23;6.20;;;;;;;6.52;100.00;101768.97;5071423;28;20080;-69
2024/03/04 10:47:47;;;;;;;11.05;6.80;;;;;;;6.54;100.00;101777.66;5073364;28;20555;-69
2024/03/04 10:50:13;;;;;;;10.68;6.82;;;;;;;6.58;100.00;101786.22;5070606;28;20001;-69
2024/03/04 10:52:38;;;;;;;8.98;6.65;;;;;;;6.57;100.00;101792.56;5067477;28;20033;-69
2024/03/04 10:55:04;;;;;;;10.02;6.40;;;;;;;6.64;100.00;101795.47;5069782;28;20045;-69
2024/03/04 10:57:31;;;;;;;11.70;6.82;;;;;;;6.67;100.00;101803.22;5070954;28;20028;-69
2024/03/04 11:00:26;;;;;;;10.35;6.03;;;;;;;6.80;100.00;101793.84;5070473;28;20111;-78
2024/03/04 11:03:04;;;;;;;11.48;6.97;;;;;;;6.89;100.00;101789.44;5071090;28;20032;-71
2024/03/04 11:05:34;;;;;;;11.13;6.93;;;;;;;6.85;100.00;101780.00;5071596;28;20004;-69
2024/03/04 11:08:16;;;;;;;7.88;5.72;;;;;;;6.71;100.00;101786.69;5071714;28;20036;-70